sensor_id;sensor_type;location;lat;lon;timestamp;P1;durP1;ratioP1;P2;durP2;ratioP2
58553;SDS011;48119;53.218;6.576;2022-11-11T00:01:01;14.45;;;5.30;;
58553;SDS011;48119;53.218;6.576;2022-11-11T00:03:37;12.23;;;5.80;;
58553;SDS011;48119;53.218;6.576;2022-11-11T00:06:03;14.10;;;6.28;;
58553;SDS011;48119;53.218;6.576;2022-11-11T00:08:31;12.50;;;5.53;;
58553;SDS011;48119;53.218;6.576;2022-11-11T00:11:01;13.00;;;5.32;;
58553;SDS011;48119;53.218;6.576;2022-11-11T00:13:32;12.35;;;5.93;;
58553;SDS011;48119;53.218;6.576;2022-11-11T00:16:12;12.48;;;6.15;;
58553;SDS011;48119;53.218;6.576;2022-11-11T00:18:39;12.48;;;6.13;;
58553;SDS011;48119;53.218;6.576;2022-11-11T00:21:25;13.35;;;5.75;;
58553;SDS011;48119;53.218;6.576;2022-11-11T00:24:23;15.75;;;6.38;;
58553;SDS011;48119;53.218;6.576;2022-11-11T00:27:09;15.68;;;6.65;;
58553;SDS011;48119;53.218;6.576;2022-11-11T00:29:36;11.30;;;5.65;;
58553;SDS011;48119;53.218;6.576;2022-11-11T00:32:04;11.52;;;5.97;;
58553;SDS011;48119;53.218;6.576;2022-11-11T00:34:50;14.60;;;5.57;;
58553;SDS011;48119;53.218;6.576;2022-11-11T00:37:35;11.27;;;5.57;;
58553;SDS011;48119;53.218;6.576;2022-11-11T00:40:03;11.90;;;5.38;;
58553;SDS011;48119;53.218;6.576;2022-11-11T00:42:29;9.52;;;6.00;;
58553;SDS011;48119;53.218;6.576;2022-11-11T00:44:55;11.15;;;6.65;;
58553;SDS011;48119;53.218;6.576;2022-11-11T00:47:20;14.63;;;6.50;;
58553;SDS011;48119;53.218;6.576;2022-11-11T00:50:05;14.02;;;6.47;;
58553;SDS011;48119;53.218;6.576;2022-11-11T00:52:53;11.73;;;5.20;;
58553;SDS011;48119;53.218;6.576;2022-11-11T00:55:19;8.98;;;6.07;;
58553;SDS011;48119;53.218;6.576;2022-11-11T00:57:45;14.30;;;6.47;;
58553;SDS011;48119;53.218;6.576;2022-11-11T01:00:11;10.38;;;5.97;;
58553;SDS011;48119;53.218;6.576;2022-11-11T01:02:37;12.95;;;5.55;;
58553;SDS011;48119;53.218;6.576;2022-11-11T01:05:02;13.40;;;6.80;;
58553;SDS011;48119;53.218;6.576;2022-11-11T01:07:28;13.85;;;6.78;;
58553;SDS011;48119;53.218;6.576;2022-11-11T01:09:54;15.98;;;6.95;;
58553;SDS011;48119;53.218;6.576;2022-11-11T01:12:20;11.80;;;6.10;;
58553;SDS011;48119;53.218;6.576;2022-11-11T01:14:46;14.88;;;5.15;;
58553;SDS011;48119;53.218;6.576;2022-11-11T01:17:11;9.32;;;5.43;;
58553;SDS011;48119;53.218;6.576;2022-11-11T01:19:40;9.82;;;5.65;;
58553;SDS011;48119;53.218;6.576;2022-11-11T01:22:06;13.68;;;6.38;;
58553;SDS011;48119;53.218;6.576;2022-11-11T01:24:31;9.32;;;5.70;;
58553;SDS011;48119;53.218;6.576;2022-11-11T01:26:57;19.90;;;6.15;;
58553;SDS011;48119;53.218;6.576;2022-11-11T01:29:23;11.90;;;7.47;;
58553;SDS011;48119;53.218;6.576;2022-11-11T01:31:49;11.25;;;6.13;;
58553;SDS011;48119;53.218;6.576;2022-11-11T01:34:15;13.48;;;6.82;;
58553;SDS011;48119;53.218;6.576;2022-11-11T01:36:40;14.43;;;6.65;;
58553;SDS011;48119;53.218;6.576;2022-11-11T01:39:06;15.35;;;7.25;;
58553;SDS011;48119;53.218;6.576;2022-11-11T01:41:33;12.00;;;6.55;;
58553;SDS011;48119;53.218;6.576;2022-11-11T01:52:06;14.18;;;6.53;;
58553;SDS011;48119;53.218;6.576;2022-11-11T01:54:51;14.07;;;6.88;;
58553;SDS011;48119;53.218;6.576;2022-11-11T01:57:31;22.17;;;6.55;;
58553;SDS011;48119;53.218;6.576;2022-11-11T02:00:09;11.25;;;6.10;;
58553;SDS011;48119;53.218;6.576;2022-11-11T02:02:42;18.50;;;6.60;;
58553;SDS011;48119;53.218;6.576;2022-11-11T02:05:13;17.20;;;7.37;;
58553;SDS011;48119;53.218;6.576;2022-11-11T02:08:00;12.38;;;6.78;;
58553;SDS011;48119;53.218;6.576;2022-11-11T02:10:29;15.40;;;6.35;;
58553;SDS011;48119;53.218;6.576;2022-11-11T02:12:57;12.82;;;6.85;;
58553;SDS011;48119;53.218;6.576;2022-11-11T02:15:42;14.95;;;7.30;;
58553;SDS011;48119;53.218;6.576;2022-11-11T02:18:08;10.52;;;6.38;;
58553;SDS011;48119;53.218;6.576;2022-11-11T02:20:36;13.27;;;6.63;;
58553;SDS011;48119;53.218;6.576;2022-11-11T02:23:05;17.15;;;8.50;;
58553;SDS011;48119;53.218;6.576;2022-11-11T02:25:31;11.63;;;6.60;;
58553;SDS011;48119;53.218;6.576;2022-11-11T02:28:04;14.55;;;7.13;;
58553;SDS011;48119;53.218;6.576;2022-11-11T02:30:31;11.65;;;7.05;;
58553;SDS011;48119;53.218;6.576;2022-11-11T02:32:57;13.77;;;6.90;;
58553;SDS011;48119;53.218;6.576;2022-11-11T02:35:28;13.07;;;7.43;;
58553;SDS011;48119;53.218;6.576;2022-11-11T02:37:58;15.52;;;7.70;;
58553;SDS011;48119;53.218;6.576;2022-11-11T02:43:27;11.93;;;6.93;;
58553;SDS011;48119;53.218;6.576;2022-11-11T02:45:54;15.82;;;8.10;;
58553;SDS011;48119;53.218;6.576;2022-11-11T02:48:21;12.30;;;6.85;;
58553;SDS011;48119;53.218;6.576;2022-11-11T02:50:47;13.40;;;6.70;;
58553;SDS011;48119;53.218;6.576;2022-11-11T02:53:14;12.15;;;7.32;;
58553;SDS011;48119;53.218;6.576;2022-11-11T02:55:39;13.18;;;7.47;;
58553;SDS011;48119;53.218;6.576;2022-11-11T02:58:05;15.65;;;8.93;;
58553;SDS011;48119;53.218;6.576;2022-11-11T03:00:31;14.57;;;8.00;;
58553;SDS011;48119;53.218;6.576;2022-11-11T03:03:00;11.02;;;7.72;;
58553;SDS011;48119;53.218;6.576;2022-11-11T03:05:25;16.17;;;8.65;;
58553;SDS011;48119;53.218;6.576;2022-11-11T03:07:51;14.63;;;8.55;;
58553;SDS011;48119;53.218;6.576;2022-11-11T03:10:17;14.20;;;9.55;;
58553;SDS011;48119;53.218;6.576;2022-11-11T03:12:42;22.83;;;10.35;;
58553;SDS011;48119;53.218;6.576;2022-11-11T03:15:08;16.08;;;8.77;;
58553;SDS011;48119;53.218;6.576;2022-11-11T03:17:34;20.83;;;10.63;;
58553;SDS011;48119;53.218;6.576;2022-11-11T03:20:15;15.00;;;9.70;;
58553;SDS011;48119;53.218;6.576;2022-11-11T03:25:43;17.02;;;10.63;;
58553;SDS011;48119;53.218;6.576;2022-11-11T03:28:18;19.42;;;10.63;;
58553;SDS011;48119;53.218;6.576;2022-11-11T03:30:46;16.25;;;10.50;;
58553;SDS011;48119;53.218;6.576;2022-11-11T03:33:13;15.73;;;10.88;;
58553;SDS011;48119;53.218;6.576;2022-11-11T03:35:40;17.55;;;10.50;;
58553;SDS011;48119;53.218;6.576;2022-11-11T03:38:08;15.43;;;10.25;;
58553;SDS011;48119;53.218;6.576;2022-11-11T03:40:53;18.70;;;11.10;;
58553;SDS011;48119;53.218;6.576;2022-11-11T03:43:21;15.15;;;10.07;;
58553;SDS011;48119;53.218;6.576;2022-11-11T03:45:54;13.13;;;9.38;;
58553;SDS011;48119;53.218;6.576;2022-11-11T03:48:22;19.73;;;12.07;;
58553;SDS011;48119;53.218;6.576;2022-11-11T03:50:49;17.45;;;11.13;;
58553;SDS011;48119;53.218;6.576;2022-11-11T03:53:16;15.32;;;11.00;;
58553;SDS011;48119;53.218;6.576;2022-11-11T03:55:44;21.80;;;12.50;;
58553;SDS011;48119;53.218;6.576;2022-11-11T03:58:10;19.27;;;12.48;;
58553;SDS011;48119;53.218;6.576;2022-11-11T04:00:39;19.33;;;11.30;;
58553;SDS011;48119;53.218;6.576;2022-11-11T04:03:06;20.75;;;12.60;;
58553;SDS011;48119;53.218;6.576;2022-11-11T04:05:53;15.75;;;11.40;;
58553;SDS011;48119;53.218;6.576;2022-11-11T04:08:37;18.08;;;11.27;;
58553;SDS011;48119;53.218;6.576;2022-11-11T04:11:23;18.67;;;10.75;;
58553;SDS011;48119;53.218;6.576;2022-11-11T04:13:51;20.52;;;11.80;;
58553;SDS011;48119;53.218;6.576;2022-11-11T04:19:03;19.30;;;11.73;;
58553;SDS011;48119;53.218;6.576;2022-11-11T04:21:51;19.40;;;13.00;;
58553;SDS011;48119;53.218;6.576;2022-11-11T04:24:17;23.48;;;12.63;;
58553;SDS011;48119;53.218;6.576;2022-11-11T04:27:07;19.27;;;11.60;;
58553;SDS011;48119;53.218;6.576;2022-11-11T04:29:34;16.10;;;11.27;;
58553;SDS011;48119;53.218;6.576;2022-11-11T04:32:01;20.48;;;12.25;;
58553;SDS011;48119;53.218;6.576;2022-11-11T04:40:50;16.35;;;12.02;;
58553;SDS011;48119;53.218;6.576;2022-11-11T04:43:28;20.83;;;12.63;;
58553;SDS011;48119;53.218;6.576;2022-11-11T04:45:58;21.02;;;13.25;;
58553;SDS011;48119;53.218;6.576;2022-11-11T04:48:24;18.38;;;12.02;;
58553;SDS011;48119;53.218;6.576;2022-11-11T04:50:50;16.90;;;11.05;;
58553;SDS011;48119;53.218;6.576;2022-11-11T04:53:16;21.45;;;12.70;;
58553;SDS011;48119;53.218;6.576;2022-11-11T04:55:42;18.20;;;12.98;;
58553;SDS011;48119;53.218;6.576;2022-11-11T04:58:31;22.63;;;12.77;;
58553;SDS011;48119;53.218;6.576;2022-11-11T05:00:59;22.58;;;13.05;;
58553;SDS011;48119;53.218;6.576;2022-11-11T05:03:25;22.67;;;13.77;;
58553;SDS011;48119;53.218;6.576;2022-11-11T05:08:38;22.23;;;14.73;;
58553;SDS011;48119;53.218;6.576;2022-11-11T05:11:20;20.08;;;13.45;;
58553;SDS011;48119;53.218;6.576;2022-11-11T05:13:47;19.60;;;13.27;;
58553;SDS011;48119;53.218;6.576;2022-11-11T05:16:45;19.30;;;13.27;;
58553;SDS011;48119;53.218;6.576;2022-11-11T05:19:31;19.20;;;13.23;;
58553;SDS011;48119;53.218;6.576;2022-11-11T05:24:49;19.02;;;13.07;;
58553;SDS011;48119;53.218;6.576;2022-11-11T05:27:34;21.33;;;14.02;;
58553;SDS011;48119;53.218;6.576;2022-11-11T05:30:00;26.95;;;14.82;;
58553;SDS011;48119;53.218;6.576;2022-11-11T05:32:26;23.77;;;14.25;;
58553;SDS011;48119;53.218;6.576;2022-11-11T05:34:52;23.23;;;14.40;;
58553;SDS011;48119;53.218;6.576;2022-11-11T05:37:18;24.20;;;14.30;;
58553;SDS011;48119;53.218;6.576;2022-11-11T05:39:44;19.30;;;13.65;;
58553;SDS011;48119;53.218;6.576;2022-11-11T05:42:10;21.58;;;14.05;;
58553;SDS011;48119;53.218;6.576;2022-11-11T05:44:36;21.92;;;14.18;;
58553;SDS011;48119;53.218;6.576;2022-11-11T05:47:02;19.83;;;13.38;;
58553;SDS011;48119;53.218;6.576;2022-11-11T05:49:28;21.73;;;13.93;;
58553;SDS011;48119;53.218;6.576;2022-11-11T05:51:54;21.08;;;14.27;;
58553;SDS011;48119;53.218;6.576;2022-11-11T05:54:21;20.98;;;15.00;;
58553;SDS011;48119;53.218;6.576;2022-11-11T05:56:47;22.67;;;13.93;;
58553;SDS011;48119;53.218;6.576;2022-11-11T05:59:13;23.08;;;13.88;;
58553;SDS011;48119;53.218;6.576;2022-11-11T06:01:39;20.30;;;13.02;;
58553;SDS011;48119;53.218;6.576;2022-11-11T06:04:05;24.20;;;14.45;;
58553;SDS011;48119;53.218;6.576;2022-11-11T06:06:31;20.52;;;13.57;;
58553;SDS011;48119;53.218;6.576;2022-11-11T06:08:58;20.73;;;14.77;;
58553;SDS011;48119;53.218;6.576;2022-11-11T06:11:24;18.90;;;12.27;;
58553;SDS011;48119;53.218;6.576;2022-11-11T06:13:52;24.98;;;14.15;;
58553;SDS011;48119;53.218;6.576;2022-11-11T06:16:18;21.80;;;13.07;;
58553;SDS011;48119;53.218;6.576;2022-11-11T06:18:44;18.45;;;13.10;;
58553;SDS011;48119;53.218;6.576;2022-11-11T06:21:10;24.13;;;12.45;;
58553;SDS011;48119;53.218;6.576;2022-11-11T06:23:36;19.85;;;12.80;;
58553;SDS011;48119;53.218;6.576;2022-11-11T06:26:01;18.08;;;12.85;;
58553;SDS011;48119;53.218;6.576;2022-11-11T06:28:37;20.65;;;12.90;;
58553;SDS011;48119;53.218;6.576;2022-11-11T06:31:19;17.75;;;12.30;;
58553;SDS011;48119;53.218;6.576;2022-11-11T06:33:49;20.40;;;13.77;;
58553;SDS011;48119;53.218;6.576;2022-11-11T06:36:16;18.63;;;11.75;;
58553;SDS011;48119;53.218;6.576;2022-11-11T06:38:43;17.33;;;12.52;;
58553;SDS011;48119;53.218;6.576;2022-11-11T06:41:10;19.45;;;11.90;;
58553;SDS011;48119;53.218;6.576;2022-11-11T06:43:39;18.63;;;12.75;;
58553;SDS011;48119;53.218;6.576;2022-11-11T06:46:06;22.77;;;14.13;;
58553;SDS011;48119;53.218;6.576;2022-11-11T06:48:41;20.50;;;13.20;;
58553;SDS011;48119;53.218;6.576;2022-11-11T06:51:08;21.70;;;14.23;;
58553;SDS011;48119;53.218;6.576;2022-11-11T06:53:35;19.92;;;13.57;;
58553;SDS011;48119;53.218;6.576;2022-11-11T06:56:01;22.75;;;14.50;;
58553;SDS011;48119;53.218;6.576;2022-11-11T06:58:26;22.58;;;13.23;;
58553;SDS011;48119;53.218;6.576;2022-11-11T07:00:52;27.65;;;14.55;;
58553;SDS011;48119;53.218;6.576;2022-11-11T07:03:19;19.45;;;14.32;;
58553;SDS011;48119;53.218;6.576;2022-11-11T07:05:46;22.08;;;14.02;;
58553;SDS011;48119;53.218;6.576;2022-11-11T07:08:13;20.00;;;13.98;;
58553;SDS011;48119;53.218;6.576;2022-11-11T07:10:45;25.67;;;14.05;;
58553;SDS011;48119;53.218;6.576;2022-11-11T07:13:12;22.38;;;13.43;;
58553;SDS011;48119;53.218;6.576;2022-11-11T07:15:39;23.60;;;13.90;;
58553;SDS011;48119;53.218;6.576;2022-11-11T07:18:06;24.25;;;15.60;;
58553;SDS011;48119;53.218;6.576;2022-11-11T07:20:32;24.23;;;14.77;;
58553;SDS011;48119;53.218;6.576;2022-11-11T07:22:58;21.30;;;14.45;;
58553;SDS011;48119;53.218;6.576;2022-11-11T07:25:23;22.13;;;14.77;;
58553;SDS011;48119;53.218;6.576;2022-11-11T07:27:49;20.60;;;13.07;;
58553;SDS011;48119;53.218;6.576;2022-11-11T07:30:15;25.35;;;14.50;;
58553;SDS011;48119;53.218;6.576;2022-11-11T07:32:45;20.02;;;14.30;;
58553;SDS011;48119;53.218;6.576;2022-11-11T07:35:12;23.65;;;13.35;;
58553;SDS011;48119;53.218;6.576;2022-11-11T07:37:39;21.90;;;14.15;;
58553;SDS011;48119;53.218;6.576;2022-11-11T07:40:06;21.90;;;14.88;;
58553;SDS011;48119;53.218;6.576;2022-11-11T07:42:36;24.33;;;14.77;;
58553;SDS011;48119;53.218;6.576;2022-11-11T07:45:03;28.77;;;15.90;;
58553;SDS011;48119;53.218;6.576;2022-11-11T07:47:29;29.52;;;16.08;;
58553;SDS011;48119;53.218;6.576;2022-11-11T07:49:55;23.23;;;14.48;;
58553;SDS011;48119;53.218;6.576;2022-11-11T07:52:20;19.52;;;13.13;;
58553;SDS011;48119;53.218;6.576;2022-11-11T07:54:48;28.02;;;14.40;;
58553;SDS011;48119;53.218;6.576;2022-11-11T07:57:14;25.63;;;16.77;;
58553;SDS011;48119;53.218;6.576;2022-11-11T07:59:40;24.98;;;14.38;;
58553;SDS011;48119;53.218;6.576;2022-11-11T08:02:09;24.67;;;14.63;;
58553;SDS011;48119;53.218;6.576;2022-11-11T08:04:36;28.15;;;14.30;;
58553;SDS011;48119;53.218;6.576;2022-11-11T08:07:02;24.90;;;14.43;;
58553;SDS011;48119;53.218;6.576;2022-11-11T08:09:28;23.58;;;14.05;;
58553;SDS011;48119;53.218;6.576;2022-11-11T08:11:54;20.98;;;14.93;;
58553;SDS011;48119;53.218;6.576;2022-11-11T08:14:48;24.60;;;14.52;;
58553;SDS011;48119;53.218;6.576;2022-11-11T08:17:14;19.88;;;14.50;;
58553;SDS011;48119;53.218;6.576;2022-11-11T08:19:40;20.70;;;14.70;;
58553;SDS011;48119;53.218;6.576;2022-11-11T08:22:05;19.48;;;13.05;;
58553;SDS011;48119;53.218;6.576;2022-11-11T08:24:31;22.98;;;14.27;;
58553;SDS011;48119;53.218;6.576;2022-11-11T08:26:57;18.08;;;12.82;;
58553;SDS011;48119;53.218;6.576;2022-11-11T08:29:22;21.75;;;14.65;;
58553;SDS011;48119;53.218;6.576;2022-11-11T08:31:50;19.02;;;13.63;;
58553;SDS011;48119;53.218;6.576;2022-11-11T08:34:17;22.90;;;14.80;;
58553;SDS011;48119;53.218;6.576;2022-11-11T08:36:43;23.45;;;13.95;;
58553;SDS011;48119;53.218;6.576;2022-11-11T08:39:08;22.88;;;13.73;;
58553;SDS011;48119;53.218;6.576;2022-11-11T08:41:35;20.38;;;13.50;;
58553;SDS011;48119;53.218;6.576;2022-11-11T08:44:01;25.13;;;13.50;;
58553;SDS011;48119;53.218;6.576;2022-11-11T08:46:29;22.67;;;14.18;;
58553;SDS011;48119;53.218;6.576;2022-11-11T08:48:54;21.65;;;13.35;;
58553;SDS011;48119;53.218;6.576;2022-11-11T08:51:20;26.75;;;13.88;;
58553;SDS011;48119;53.218;6.576;2022-11-11T08:53:46;22.55;;;12.98;;
58553;SDS011;48119;53.218;6.576;2022-11-11T08:56:12;20.08;;;13.73;;
58553;SDS011;48119;53.218;6.576;2022-11-11T08:58:38;22.17;;;13.52;;
58553;SDS011;48119;53.218;6.576;2022-11-11T09:01:04;20.92;;;13.23;;
58553;SDS011;48119;53.218;6.576;2022-11-11T09:03:35;22.83;;;13.63;;
58553;SDS011;48119;53.218;6.576;2022-11-11T09:06:01;21.27;;;12.70;;
58553;SDS011;48119;53.218;6.576;2022-11-11T09:08:26;24.38;;;14.43;;
58553;SDS011;48119;53.218;6.576;2022-11-11T09:10:52;24.65;;;13.60;;
58553;SDS011;48119;53.218;6.576;2022-11-11T09:13:18;22.23;;;13.18;;
58553;SDS011;48119;53.218;6.576;2022-11-11T09:15:43;21.73;;;14.25;;
58553;SDS011;48119;53.218;6.576;2022-11-11T09:18:09;25.35;;;12.52;;
58553;SDS011;48119;53.218;6.576;2022-11-11T09:20:35;22.20;;;13.43;;
58553;SDS011;48119;53.218;6.576;2022-11-11T09:23:01;22.17;;;12.30;;
58553;SDS011;48119;53.218;6.576;2022-11-11T09:25:27;20.55;;;13.52;;
58553;SDS011;48119;53.218;6.576;2022-11-11T09:27:56;27.38;;;12.93;;
58553;SDS011;48119;53.218;6.576;2022-11-11T09:30:23;24.50;;;11.73;;
58553;SDS011;48119;53.218;6.576;2022-11-11T09:32:50;19.60;;;14.20;;
58553;SDS011;48119;53.218;6.576;2022-11-11T09:35:16;17.30;;;12.85;;
58553;SDS011;48119;53.218;6.576;2022-11-11T09:37:51;19.30;;;12.68;;
58553;SDS011;48119;53.218;6.576;2022-11-11T09:40:18;18.02;;;12.82;;
58553;SDS011;48119;53.218;6.576;2022-11-11T09:42:55;18.73;;;12.75;;
58553;SDS011;48119;53.218;6.576;2022-11-11T09:48:15;17.52;;;11.68;;
58553;SDS011;48119;53.218;6.576;2022-11-11T09:51:04;20.75;;;13.10;;
58553;SDS011;48119;53.218;6.576;2022-11-11T09:53:37;19.42;;;12.48;;
58553;SDS011;48119;53.218;6.576;2022-11-11T09:56:11;24.83;;;12.93;;
58553;SDS011;48119;53.218;6.576;2022-11-11T10:01:52;21.05;;;13.68;;
58553;SDS011;48119;53.218;6.576;2022-11-11T10:04:28;19.95;;;12.52;;
58553;SDS011;48119;53.218;6.576;2022-11-11T10:07:42;18.75;;;12.10;;
58553;SDS011;48119;53.218;6.576;2022-11-11T10:10:22;18.17;;;13.07;;
58553;SDS011;48119;53.218;6.576;2022-11-11T10:12:58;21.35;;;12.27;;
58553;SDS011;48119;53.218;6.576;2022-11-11T10:15:29;19.00;;;12.82;;
58553;SDS011;48119;53.218;6.576;2022-11-11T10:18:18;21.42;;;12.35;;
58553;SDS011;48119;53.218;6.576;2022-11-11T10:20:53;19.65;;;12.48;;
58553;SDS011;48119;53.218;6.576;2022-11-11T10:23:23;17.33;;;12.48;;
58553;SDS011;48119;53.218;6.576;2022-11-11T10:26:01;17.60;;;11.65;;
58553;SDS011;48119;53.218;6.576;2022-11-11T10:28:43;18.52;;;13.05;;
58553;SDS011;48119;53.218;6.576;2022-11-11T10:31:14;18.08;;;11.40;;
58553;SDS011;48119;53.218;6.576;2022-11-11T10:33:52;21.00;;;12.65;;
58553;SDS011;48119;53.218;6.576;2022-11-11T10:36:23;17.50;;;12.27;;
58553;SDS011;48119;53.218;6.576;2022-11-11T10:39:02;19.58;;;13.13;;
58553;SDS011;48119;53.218;6.576;2022-11-11T10:44:24;19.45;;;12.32;;
58553;SDS011;48119;53.218;6.576;2022-11-11T10:49:20;17.70;;;12.18;;
58553;SDS011;48119;53.218;6.576;2022-11-11T10:51:54;19.65;;;11.25;;
58553;SDS011;48119;53.218;6.576;2022-11-11T10:54:24;23.90;;;13.27;;
58553;SDS011;48119;53.218;6.576;2022-11-11T10:57:09;18.23;;;12.23;;
58553;SDS011;48119;53.218;6.576;2022-11-11T11:00:02;19.83;;;11.32;;
58553;SDS011;48119;53.218;6.576;2022-11-11T11:05:40;18.02;;;11.68;;
58553;SDS011;48119;53.218;6.576;2022-11-11T11:10:39;19.88;;;11.50;;
58553;SDS011;48119;53.218;6.576;2022-11-11T11:13:15;19.00;;;12.25;;
58553;SDS011;48119;53.218;6.576;2022-11-11T11:15:46;22.33;;;12.82;;
58553;SDS011;48119;53.218;6.576;2022-11-11T11:18:18;16.23;;;10.95;;
58553;SDS011;48119;53.218;6.576;2022-11-11T11:21:00;18.65;;;12.95;;
58553;SDS011;48119;53.218;6.576;2022-11-11T11:23:38;15.02;;;11.18;;
58553;SDS011;48119;53.218;6.576;2022-11-11T11:26:08;20.23;;;11.32;;
58553;SDS011;48119;53.218;6.576;2022-11-11T11:31:35;15.38;;;12.25;;
58553;SDS011;48119;53.218;6.576;2022-11-11T11:34:02;17.08;;;11.55;;
58553;SDS011;48119;53.218;6.576;2022-11-11T11:36:28;18.30;;;11.75;;
58553;SDS011;48119;53.218;6.576;2022-11-11T11:38:54;17.20;;;11.45;;
58553;SDS011;48119;53.218;6.576;2022-11-11T11:44:27;19.73;;;11.55;;
58553;SDS011;48119;53.218;6.576;2022-11-11T11:50:16;18.75;;;12.55;;
58553;SDS011;48119;53.218;6.576;2022-11-11T11:55:41;15.48;;;10.75;;
58553;SDS011;48119;53.218;6.576;2022-11-11T12:01:04;15.18;;;11.48;;
58553;SDS011;48119;53.218;6.576;2022-11-11T12:06:49;17.83;;;11.68;;
58553;SDS011;48119;53.218;6.576;2022-11-11T12:09:36;16.30;;;10.60;;
58553;SDS011;48119;53.218;6.576;2022-11-11T12:20:16;16.55;;;11.07;;
58553;SDS011;48119;53.218;6.576;2022-11-11T12:40:03;15.80;;;10.75;;
58553;SDS011;48119;53.218;6.576;2022-11-11T12:48:10;15.85;;;11.07;;
58553;SDS011;48119;53.218;6.576;2022-11-11T12:50:59;17.83;;;11.38;;
58553;SDS011;48119;53.218;6.576;2022-11-11T12:53:44;19.95;;;11.77;;
58553;SDS011;48119;53.218;6.576;2022-11-11T12:56:28;15.98;;;11.30;;
58553;SDS011;48119;53.218;6.576;2022-11-11T13:02:19;16.95;;;10.90;;
58553;SDS011;48119;53.218;6.576;2022-11-11T13:15:33;17.95;;;11.45;;
58553;SDS011;48119;53.218;6.576;2022-11-11T13:17:59;20.77;;;13.95;;
58553;SDS011;48119;53.218;6.576;2022-11-11T13:20:41;18.50;;;13.27;;
58553;SDS011;48119;53.218;6.576;2022-11-11T13:23:25;18.45;;;11.05;;
58553;SDS011;48119;53.218;6.576;2022-11-11T13:25:53;18.52;;;11.00;;
58553;SDS011;48119;53.218;6.576;2022-11-11T13:28:28;16.95;;;10.50;;
58553;SDS011;48119;53.218;6.576;2022-11-11T13:33:44;15.77;;;11.48;;
58553;SDS011;48119;53.218;6.576;2022-11-11T13:36:20;17.10;;;11.02;;
58553;SDS011;48119;53.218;6.576;2022-11-11T13:38:51;15.00;;;11.32;;
58553;SDS011;48119;53.218;6.576;2022-11-11T13:41:27;17.83;;;10.80;;
58553;SDS011;48119;53.218;6.576;2022-11-11T13:43:57;16.83;;;11.23;;
58553;SDS011;48119;53.218;6.576;2022-11-11T13:48:54;16.48;;;11.32;;
58553;SDS011;48119;53.218;6.576;2022-11-11T13:53:49;21.77;;;13.18;;
58553;SDS011;48119;53.218;6.576;2022-11-11T13:56:21;19.75;;;13.63;;
58553;SDS011;48119;53.218;6.576;2022-11-11T14:01:17;42.22;;;27.13;;
58553;SDS011;48119;53.218;6.576;2022-11-11T14:13:52;24.58;;;13.63;;
58553;SDS011;48119;53.218;6.576;2022-11-11T14:21:45;16.70;;;12.55;;
58553;SDS011;48119;53.218;6.576;2022-11-11T14:24:21;17.77;;;12.07;;
58553;SDS011;48119;53.218;6.576;2022-11-11T14:29:52;16.55;;;11.85;;
58553;SDS011;48119;53.218;6.576;2022-11-11T14:35:14;17.50;;;11.88;;
58553;SDS011;48119;53.218;6.576;2022-11-11T14:40:35;16.13;;;12.27;;
58553;SDS011;48119;53.218;6.576;2022-11-11T14:43:32;16.38;;;11.35;;
58553;SDS011;48119;53.218;6.576;2022-11-11T14:46:13;13.27;;;10.43;;
58553;SDS011;48119;53.218;6.576;2022-11-11T14:54:14;16.38;;;11.60;;
58553;SDS011;48119;53.218;6.576;2022-11-11T14:57:05;18.65;;;12.20;;
58553;SDS011;48119;53.218;6.576;2022-11-11T14:59:35;17.58;;;12.13;;
58553;SDS011;48119;53.218;6.576;2022-11-11T15:02:03;17.73;;;12.75;;
58553;SDS011;48119;53.218;6.576;2022-11-11T15:05:00;16.80;;;12.52;;
58553;SDS011;48119;53.218;6.576;2022-11-11T15:07:40;19.67;;;11.77;;
58553;SDS011;48119;53.218;6.576;2022-11-11T15:10:48;19.38;;;12.55;;
58553;SDS011;48119;53.218;6.576;2022-11-11T15:21:35;16.10;;;11.52;;
58553;SDS011;48119;53.218;6.576;2022-11-11T15:27:07;20.33;;;12.25;;
58553;SDS011;48119;53.218;6.576;2022-11-11T15:29:56;17.65;;;11.95;;
58553;SDS011;48119;53.218;6.576;2022-11-11T15:35:40;16.00;;;11.82;;
58553;SDS011;48119;53.218;6.576;2022-11-11T15:38:14;15.45;;;11.48;;
58553;SDS011;48119;53.218;6.576;2022-11-11T15:40:46;16.02;;;10.65;;
58553;SDS011;48119;53.218;6.576;2022-11-11T15:43:16;16.52;;;11.43;;
58553;SDS011;48119;53.218;6.576;2022-11-11T15:45:45;16.73;;;11.38;;
58553;SDS011;48119;53.218;6.576;2022-11-11T15:48:19;17.20;;;11.93;;
58553;SDS011;48119;53.218;6.576;2022-11-11T15:50:51;21.48;;;11.35;;
58553;SDS011;48119;53.218;6.576;2022-11-11T15:53:21;16.38;;;11.27;;
58553;SDS011;48119;53.218;6.576;2022-11-11T15:55:52;16.95;;;11.43;;
58553;SDS011;48119;53.218;6.576;2022-11-11T15:58:29;18.83;;;12.13;;
58553;SDS011;48119;53.218;6.576;2022-11-11T16:00:56;19.58;;;11.13;;
58553;SDS011;48119;53.218;6.576;2022-11-11T16:03:41;16.35;;;12.25;;
58553;SDS011;48119;53.218;6.576;2022-11-11T16:06:12;19.35;;;11.73;;
58553;SDS011;48119;53.218;6.576;2022-11-11T16:08:43;16.67;;;11.95;;
58553;SDS011;48119;53.218;6.576;2022-11-11T16:11:15;14.20;;;11.10;;
58553;SDS011;48119;53.218;6.576;2022-11-11T16:13:44;14.35;;;11.70;;
58553;SDS011;48119;53.218;6.576;2022-11-11T16:16:18;19.10;;;11.85;;
58553;SDS011;48119;53.218;6.576;2022-11-11T16:18:50;15.60;;;10.68;;
58553;SDS011;48119;53.218;6.576;2022-11-11T16:21:47;17.73;;;11.75;;
58553;SDS011;48119;53.218;6.576;2022-11-11T16:24:26;16.98;;;11.50;;
58553;SDS011;48119;53.218;6.576;2022-11-11T16:26:55;16.45;;;11.57;;
58553;SDS011;48119;53.218;6.576;2022-11-11T16:29:22;14.70;;;11.93;;
58553;SDS011;48119;53.218;6.576;2022-11-11T16:31:55;23.73;;;13.75;;
58553;SDS011;48119;53.218;6.576;2022-11-11T16:36:59;18.55;;;13.02;;
58553;SDS011;48119;53.218;6.576;2022-11-11T16:39:39;19.15;;;12.52;;
58553;SDS011;48119;53.218;6.576;2022-11-11T16:57:59;18.42;;;12.50;;
58553;SDS011;48119;53.218;6.576;2022-11-11T17:00:27;21.90;;;13.93;;
58553;SDS011;48119;53.218;6.576;2022-11-11T17:03:07;23.67;;;14.77;;
58553;SDS011;48119;53.218;6.576;2022-11-11T17:08:36;21.40;;;13.98;;
58553;SDS011;48119;53.218;6.576;2022-11-11T17:11:07;19.98;;;13.27;;
58553;SDS011;48119;53.218;6.576;2022-11-11T17:13:35;23.10;;;14.13;;
58553;SDS011;48119;53.218;6.576;2022-11-11T17:16:02;23.60;;;15.07;;
58553;SDS011;48119;53.218;6.576;2022-11-11T17:18:36;22.42;;;14.68;;
58553;SDS011;48119;53.218;6.576;2022-11-11T17:21:03;22.80;;;15.65;;
58553;SDS011;48119;53.218;6.576;2022-11-11T17:23:29;23.60;;;14.80;;
58553;SDS011;48119;53.218;6.576;2022-11-11T17:25:59;20.70;;;14.00;;
58553;SDS011;48119;53.218;6.576;2022-11-11T17:28:35;30.02;;;15.63;;
58553;SDS011;48119;53.218;6.576;2022-11-11T17:31:05;22.77;;;15.60;;
58553;SDS011;48119;53.218;6.576;2022-11-11T17:33:32;21.73;;;15.18;;
58553;SDS011;48119;53.218;6.576;2022-11-11T17:35:57;20.88;;;14.25;;
58553;SDS011;48119;53.218;6.576;2022-11-11T17:38:25;21.85;;;15.00;;
58553;SDS011;48119;53.218;6.576;2022-11-11T17:40:51;21.27;;;14.88;;
58553;SDS011;48119;53.218;6.576;2022-11-11T17:43:16;29.17;;;17.30;;
58553;SDS011;48119;53.218;6.576;2022-11-11T17:45:42;24.27;;;16.10;;
58553;SDS011;48119;53.218;6.576;2022-11-11T17:48:09;22.45;;;14.55;;
58553;SDS011;48119;53.218;6.576;2022-11-11T17:50:35;23.42;;;14.23;;